Time;durP1;ratioP1;P1;durP2;ratioP2;P2;SDS_P1;SDS_P2;PMS_P1;PMS_P2;Temp;Humidity;BMP_temperature;BMP_pressure;BME280_temperature;BME280_humidity;BME280_pressure;Samples;Min_cycle;Max_cycle;Signal;HPM_P1;HPM_P2
2023/01/25 00:01:37;;;;;;;22.03;13.60;;;;;;;;;;4970033;28;20497;-53
2023/01/25 00:04:02;;;;;;;24.67;13.60;;;;;;;;;;5014219;28;20434;-53
2023/01/25 00:06:28;;;;;;;24.23;13.33;;;;;;;;;;4989780;28;20806;-53
2023/01/25 00:08:54;;;;;;;24.10;13.40;;;;;;;;;;5009388;28;22729;-54
2023/01/25 00:11:20;;;;;;;24.10;13.63;;;;;;;;;;5004908;28;21766;-54
2023/01/25 00:13:46;;;;;;;26.17;13.50;;;;;;;;;;5013895;28;20675;-53
2023/01/25 00:16:12;;;;;;;20.17;13.20;;;;;;;;;;5003556;28;20564;-53
2023/01/25 00:18:38;;;;;;;19.00;13.13;;;;;;;;;;5009550;28;20810;-53
2023/01/25 00:21:11;;;;;;;24.90;12.80;;;;;;;;;;4986058;28;20948;-54
2023/01/25 00:23:37;;;;;;;19.13;12.40;;;;;;;;;;5013657;28;20458;-52
2023/01/25 00:26:03;;;;;;;21.53;13.70;;;;;;;;;;4991033;28;20439;-54
2023/01/25 00:28:29;;;;;;;20.87;12.27;;;;;;;;;;5010884;28;20439;-52
2023/01/25 00:30:59;;;;;;;23.87;15.37;;;;;;;;;;4971286;28;21038;-54
2023/01/25 00:33:38;;;;;;;25.90;14.00;;;;;;;;;;5022575;28;20439;-52
2023/01/25 00:36:23;;;;;;;23.80;14.07;;;;;;;;;;4988143;28;20452;-53
2023/01/25 00:38:49;;;;;;;23.33;12.10;;;;;;;;;;5005132;28;20519;-52
2023/01/25 00:41:15;;;;;;;20.53;13.40;;;;;;;;;;4978295;28;21124;-53
2023/01/25 00:43:41;;;;;;;26.83;13.00;;;;;;;;;;5023932;28;20454;-52
2023/01/25 00:46:08;;;;;;;22.60;12.70;;;;;;;;;;5006936;28;20443;-52
2023/01/25 00:48:34;;;;;;;26.37;12.90;;;;;;;;;;5010520;28;21681;-55
2023/01/25 00:51:00;;;;;;;25.10;13.90;;;;;;;;;;4980865;28;20471;-52
2023/01/25 00:53:26;;;;;;;20.23;10.87;;;;;;;;;;5014210;28;20443;-52
2023/01/25 00:55:52;;;;;;;20.23;12.30;;;;;;;;;;5011343;28;20465;-55
2023/01/25 00:58:18;;;;;;;20.80;13.20;;;;;;;;;;5011618;28;20423;-52
2023/01/25 01:00:45;;;;;;;21.27;14.07;;;;;;;;;;4971892;28;20462;-54
2023/01/25 01:03:11;;;;;;;19.83;12.97;;;;;;;;;;5010140;28;20514;-53
2023/01/25 01:05:37;;;;;;;18.70;12.10;;;;;;;;;;5001870;28;21043;-54
2023/01/25 01:08:03;;;;;;;22.07;12.70;;;;;;;;;;5015945;28;20522;-54
2023/01/25 01:10:29;;;;;;;22.80;13.40;;;;;;;;;;5000261;28;21457;-54
2023/01/25 01:12:55;;;;;;;24.60;15.40;;;;;;;;;;5014256;28;20543;-54
2023/01/25 01:15:21;;;;;;;15.90;11.53;;;;;;;;;;5012405;28;21118;-52
2023/01/25 01:17:47;;;;;;;24.80;12.80;;;;;;;;;;5012501;28;20762;-53
2023/01/25 01:20:13;;;;;;;24.93;13.67;;;;;;;;;;4993819;28;20454;-53
2023/01/25 01:22:39;;;;;;;21.50;13.43;;;;;;;;;;5014492;28;20500;-54
2023/01/25 01:25:05;;;;;;;24.53;13.70;;;;;;;;;;4993680;28;20445;-52
2023/01/25 01:27:31;;;;;;;19.60;12.43;;;;;;;;;;4984928;28;20451;-53
2023/01/25 01:29:57;;;;;;;25.47;12.50;;;;;;;;;;5008214;28;20454;-52
2023/01/25 01:32:23;;;;;;;20.73;13.63;;;;;;;;;;4966581;28;20479;-53
2023/01/25 01:34:49;;;;;;;22.37;12.70;;;;;;;;;;5009640;28;20525;-52
2023/01/25 01:37:15;;;;;;;17.53;11.27;;;;;;;;;;4986327;28;20451;-52
2023/01/25 01:39:41;;;;;;;20.70;12.70;;;;;;;;;;5015241;28;21342;-55
2023/01/25 01:42:07;;;;;;;20.37;11.90;;;;;;;;;;4978037;28;20510;-52
2023/01/25 01:44:42;;;;;;;23.80;12.83;;;;;;;;;;4993668;28;20455;-52
2023/01/25 01:47:08;;;;;;;19.80;12.37;;;;;;;;;;4996183;28;21121;-50
2023/01/25 01:49:34;;;;;;;18.23;12.83;;;;;;;;;;5016740;28;20439;-53
2023/01/25 01:52:01;;;;;;;20.70;11.13;;;;;;;;;;5008749;28;20467;-53
2023/01/25 01:54:28;;;;;;;18.47;12.13;;;;;;;;;;5006782;28;20948;-54
2023/01/25 01:56:55;;;;;;;17.07;12.50;;;;;;;;;;4987633;28;20711;-52
2023/01/25 01:59:21;;;;;;;20.00;13.90;;;;;;;;;;5012814;28;20504;-53
2023/01/25 02:01:47;;;;;;;17.93;10.53;;;;;;;;;;5002986;28;20731;-53
2023/01/25 02:04:13;;;;;;;18.57;11.93;;;;;;;;;;5013543;28;20470;-53
2023/01/25 02:06:42;;;;;;;22.50;13.10;;;;;;;;;;4977278;28;20431;-53
2023/01/25 02:09:08;;;;;;;23.33;13.67;;;;;;;;;;5028109;28;20505;-53
2023/01/25 02:11:34;;;;;;;18.60;12.03;;;;;;;;;;4984753;28;20553;-52
2023/01/25 02:14:00;;;;;;;17.57;10.90;;;;;;;;;;5008958;28;20453;-53
2023/01/25 02:16:27;;;;;;;22.13;12.70;;;;;;;;;;4984519;28;20538;-53
2023/01/25 02:18:53;;;;;;;19.50;10.63;;;;;;;;;;5012165;28;20444;-53
2023/01/25 02:21:19;;;;;;;21.90;12.43;;;;;;;;;;5006716;28;20458;-53
2023/01/25 02:23:47;;;;;;;21.77;12.87;;;;;;;;;;5017725;28;20439;-53
2023/01/25 02:26:13;;;;;;;21.63;13.20;;;;;;;;;;4985358;28;20442;-53
2023/01/25 02:28:41;;;;;;;19.63;11.20;;;;;;;;;;4998532;28;20439;-53
2023/01/25 02:31:07;;;;;;;22.43;12.90;;;;;;;;;;4996068;28;20489;-53
2023/01/25 02:33:33;;;;;;;19.80;11.77;;;;;;;;;;5021583;28;20431;-53
2023/01/25 02:36:08;;;;;;;19.83;11.83;;;;;;;;;;4992562;28;20489;-53
2023/01/25 02:38:39;;;;;;;17.90;11.00;;;;;;;;;;5015136;28;20468;-52
2023/01/25 02:41:25;;;;;;;18.87;12.23;;;;;;;;;;4981017;28;20504;-56
2023/01/25 02:43:51;;;;;;;20.37;11.37;;;;;;;;;;5016018;28;20446;-54
2023/01/25 02:46:21;;;;;;;22.20;12.23;;;;;;;;;;4992518;28;20438;-53
2023/01/25 02:48:47;;;;;;;20.57;12.27;;;;;;;;;;5022432;28;20505;-52
2023/01/25 02:51:13;;;;;;;22.13;11.60;;;;;;;;;;4991828;28;20463;-53
2023/01/25 02:53:39;;;;;;;24.43;12.10;;;;;;;;;;5017176;28;21013;-54
2023/01/25 02:56:05;;;;;;;20.10;11.97;;;;;;;;;;5007504;28;20952;-53
2023/01/25 02:58:31;;;;;;;13.53;10.47;;;;;;;;;;5017371;28;21159;-57
2023/01/25 03:00:57;;;;;;;17.57;10.40;;;;;;;;;;4988619;28;20435;-54
2023/01/25 03:03:23;;;;;;;22.60;11.93;;;;;;;;;;5011921;28;20465;-52
2023/01/25 03:05:49;;;;;;;18.00;10.53;;;;;;;;;;5008532;28;20507;-53
2023/01/25 03:08:15;;;;;;;15.90;11.40;;;;;;;;;;5015025;28;20490;-53
2023/01/25 03:10:41;;;;;;;18.83;10.83;;;;;;;;;;4978421;28;21716;-53
2023/01/25 03:13:07;;;;;;;19.70;11.37;;;;;;;;;;5028640;28;20447;-53
2023/01/25 03:15:33;;;;;;;19.27;10.20;;;;;;;;;;5011447;28;20473;-54
2023/01/25 03:17:59;;;;;;;18.47;10.93;;;;;;;;;;4991706;28;20935;-52
2023/01/25 03:20:25;;;;;;;16.07;10.77;;;;;;;;;;5016015;28;20447;-53
2023/01/25 03:22:51;;;;;;;20.33;11.47;;;;;;;;;;4985995;28;20448;-54
2023/01/25 03:25:17;;;;;;;19.70;12.37;;;;;;;;;;5017250;28;20450;-53
2023/01/25 03:27:43;;;;;;;19.80;10.50;;;;;;;;;;4987903;28;20455;-53
2023/01/25 03:30:09;;;;;;;20.40;10.97;;;;;;;;;;5021790;28;20457;-53
2023/01/25 03:32:35;;;;;;;20.90;11.63;;;;;;;;;;4984764;28;20942;-55
2023/01/25 03:35:01;;;;;;;17.70;9.73;;;;;;;;;;5013729;28;20561;-54
2023/01/25 03:37:30;;;;;;;21.73;11.70;;;;;;;;;;5012047;28;20451;-53
2023/01/25 03:39:56;;;;;;;21.10;11.60;;;;;;;;;;5018357;28;20436;-53
2023/01/25 03:42:22;;;;;;;17.93;11.10;;;;;;;;;;4968290;28;20518;-54
2023/01/25 03:44:47;;;;;;;25.57;11.97;;;;;;;;;;5012986;28;20530;-54
2023/01/25 03:47:13;;;;;;;16.23;9.77;;;;;;;;;;5005052;28;20451;-53
2023/01/25 03:49:39;;;;;;;19.80;11.13;;;;;;;;;;5007900;28;20431;-55
2023/01/25 03:52:05;;;;;;;24.03;11.70;;;;;;;;;;5015671;28;20598;-53
2023/01/25 03:54:31;;;;;;;13.63;9.20;;;;;;;;;;4992357;28;20688;-54
2023/01/25 03:56:57;;;;;;;19.23;10.73;;;;;;;;;;5015459;28;20449;-53
2023/01/25 03:59:23;;;;;;;17.70;10.30;;;;;;;;;;5003072;28;21034;-52
2023/01/25 04:01:49;;;;;;;22.77;14.57;;;;;;;;;;5005569;28;20447;-52
2023/01/25 04:04:16;;;;;;;21.03;11.33;;;;;;;;;;5000198;28;20540;-52
2023/01/25 04:06:42;;;;;;;23.80;10.53;;;;;;;;;;5003393;28;20436;-55
2023/01/25 04:09:08;;;;;;;20.77;12.47;;;;;;;;;;5004003;28;20446;-53
2023/01/25 04:11:34;;;;;;;20.00;11.40;;;;;;;;;;4998846;28;20490;-52
2023/01/25 04:14:01;;;;;;;21.63;12.00;;;;;;;;;;5007864;28;20489;-53
2023/01/25 04:16:29;;;;;;;22.17;10.37;;;;;;;;;;4983864;28;20786;-55
2023/01/25 04:18:55;;;;;;;21.37;11.90;;;;;;;;;;5013069;28;20515;-53
2023/01/25 04:21:21;;;;;;;21.27;10.27;;;;;;;;;;5014768;28;20470;-52
2023/01/25 04:23:47;;;;;;;19.13;9.40;;;;;;;;;;5017491;28;20443;-55
2023/01/25 04:26:13;;;;;;;19.83;10.90;;;;;;;;;;4992164;28;20447;-53
2023/01/25 04:28:39;;;;;;;16.87;10.43;;;;;;;;;;5017536;28;20435;-53
2023/01/25 04:31:05;;;;;;;21.57;10.77;;;;;;;;;;4991547;28;20474;-52
2023/01/25 04:33:31;;;;;;;18.20;10.10;;;;;;;;;;5016619;28;20456;-54
2023/01/25 04:35:57;;;;;;;21.53;11.70;;;;;;;;;;4990711;28;20444;-52
2023/01/25 04:38:23;;;;;;;20.43;11.00;;;;;;;;;;5040789;28;20435;-54
2023/01/25 04:40:50;;;;;;;16.80;10.23;;;;;;;;;;4996132;28;20450;-52
2023/01/25 04:43:16;;;;;;;17.73;10.80;;;;;;;;;;5016744;28;20496;-53
2023/01/25 04:45:42;;;;;;;16.20;9.20;;;;;;;;;;4971238;28;20458;-53
2023/01/25 04:48:08;;;;;;;15.83;8.97;;;;;;;;;;5013082;28;20447;-53
2023/01/25 04:50:35;;;;;;;22.47;10.20;;;;;;;;;;4993718;28;20497;-52
2023/01/25 04:53:01;;;;;;;21.53;11.00;;;;;;;;;;5017421;28;20480;-53
2023/01/25 04:55:26;;;;;;;13.47;8.90;;;;;;;;;;4992785;28;20643;-53
2023/01/25 04:57:52;;;;;;;16.33;9.47;;;;;;;;;;5015467;28;20529;-51
2023/01/25 05:00:19;;;;;;;17.60;9.37;;;;;;;;;;5014328;28;20443;-51
2023/01/25 05:02:45;;;;;;;17.77;9.30;;;;;;;;;;5010445;28;20447;-53
2023/01/25 05:05:11;;;;;;;15.67;10.10;;;;;;;;;;5010945;28;20440;-52
2023/01/25 05:07:37;;;;;;;20.43;11.00;;;;;;;;;;5016136;28;20526;-54
2023/01/25 05:10:03;;;;;;;16.70;9.43;;;;;;;;;;4983782;28;20451;-54
2023/01/25 05:12:29;;;;;;;22.37;10.17;;;;;;;;;;5009105;28;20477;-53
2023/01/25 05:14:54;;;;;;;15.37;8.80;;;;;;;;;;4976932;28;20440;-55
2023/01/25 05:17:20;;;;;;;19.47;8.57;;;;;;;;;;5005097;28;20455;-53
2023/01/25 05:19:46;;;;;;;18.30;9.80;;;;;;;;;;4965604;28;20506;-54
2023/01/25 05:22:16;;;;;;;17.10;8.77;;;;;;;;;;5011404;28;20473;-52
2023/01/25 05:24:43;;;;;;;18.77;9.67;;;;;;;;;;4984855;28;25024;-54
2023/01/25 05:27:09;;;;;;;14.33;9.23;;;;;;;;;;5012372;28;20446;-52
2023/01/25 05:29:36;;;;;;;14.50;9.10;;;;;;;;;;4985529;28;20435;-52
2023/01/25 05:32:06;;;;;;;14.10;7.93;;;;;;;;;;5010068;28;20553;-53
2023/01/25 05:34:32;;;;;;;15.53;7.87;;;;;;;;;;4984617;28;21129;-53
2023/01/25 05:36:58;;;;;;;16.17;9.33;;;;;;;;;;5001405;28;20439;-52
2023/01/25 05:39:25;;;;;;;14.43;8.50;;;;;;;;;;4995406;28;20451;-53
2023/01/25 05:41:51;;;;;;;14.80;8.63;;;;;;;;;;5010746;28;20805;-53
2023/01/25 05:44:17;;;;;;;13.37;7.73;;;;;;;;;;5005006;28;20454;-51
2023/01/25 05:46:43;;;;;;;14.07;7.67;;;;;;;;;;5006764;28;20423;-53
2023/01/25 05:49:10;;;;;;;11.80;7.70;;;;;;;;;;4988958;28;20478;-54
2023/01/25 05:51:37;;;;;;;15.73;9.63;;;;;;;;;;5008935;28;21211;-52
2023/01/25 05:54:03;;;;;;;18.97;9.57;;;;;;;;;;5005875;28;20501;-53
2023/01/25 05:56:29;;;;;;;13.30;9.73;;;;;;;;;;4999372;28;20454;-54
2023/01/25 05:58:55;;;;;;;16.27;9.20;;;;;;;;;;5006660;28;20459;-51
2023/01/25 06:01:21;;;;;;;12.80;8.63;;;;;;;;;;4987235;28;20518;-55
2023/01/25 06:03:47;;;;;;;21.00;9.87;;;;;;;;;;5012558;28;20474;-52
2023/01/25 06:06:13;;;;;;;22.30;9.63;;;;;;;;;;5022884;28;20443;-53
2023/01/25 06:08:48;;;;;;;19.57;9.40;;;;;;;;;;4999716;28;20450;-55
2023/01/25 06:11:18;;;;;;;15.13;8.60;;;;;;;;;;4973610;28;20970;-52
2023/01/25 06:13:45;;;;;;;14.00;9.60;;;;;;;;;;4992808;28;20461;-52
2023/01/25 06:16:11;;;;;;;13.50;7.67;;;;;;;;;;4977794;28;20853;-53
2023/01/25 06:18:37;;;;;;;12.20;9.07;;;;;;;;;;4997636;28;20456;-53
2023/01/25 06:21:03;;;;;;;15.13;9.03;;;;;;;;;;4990131;28;20439;-53
2023/01/25 06:23:30;;;;;;;14.37;8.90;;;;;;;;;;5007640;28;20460;-53
2023/01/25 06:26:00;;;;;;;17.77;9.57;;;;;;;;;;4976396;28;21041;-53
2023/01/25 06:28:28;;;;;;;11.80;8.07;;;;;;;;;;5012961;28;20443;-55
2023/01/25 06:30:54;;;;;;;14.33;9.07;;;;;;;;;;4983618;28;20463;-53
2023/01/25 06:33:20;;;;;;;18.90;10.33;;;;;;;;;;5009309;28;20451;-53
2023/01/25 06:35:46;;;;;;;15.57;7.93;;;;;;;;;;4987507;28;20501;-55
2023/01/25 06:38:12;;;;;;;13.60;7.80;;;;;;;;;;5008838;28;20478;-53
2023/01/25 06:40:38;;;;;;;14.43;10.53;;;;;;;;;;4993111;28;20431;-53
2023/01/25 06:43:07;;;;;;;17.10;9.80;;;;;;;;;;4984226;28;20442;-55
2023/01/25 06:45:34;;;;;;;13.90;8.40;;;;;;;;;;4985281;28;21119;-54
2023/01/25 06:48:00;;;;;;;14.90;8.47;;;;;;;;;;5012143;28;20435;-54
2023/01/25 06:50:26;;;;;;;15.97;9.60;;;;;;;;;;4987775;28;20541;-53
2023/01/25 06:52:52;;;;;;;16.87;7.90;;;;;;;;;;5004351;28;20546;-53
2023/01/25 06:55:28;;;;;;;14.80;7.87;;;;;;;;;;4985745;28;20449;-53
2023/01/25 06:57:57;;;;;;;12.80;8.93;;;;;;;;;;4995040;28;20509;-54
2023/01/25 07:00:23;;;;;;;19.50;10.10;;;;;;;;;;4983023;28;20451;-54
2023/01/25 07:02:49;;;;;;;11.77;7.63;;;;;;;;;;4999933;28;20458;-52
2023/01/25 07:05:15;;;;;;;13.47;7.83;;;;;;;;;;5003317;28;21016;-53
2023/01/25 07:07:44;;;;;;;14.73;9.37;;;;;;;;;;5005021;28;20423;-53
2023/01/25 07:10:10;;;;;;;16.17;9.67;;;;;;;;;;5014425;28;20470;-52
2023/01/25 07:12:36;;;;;;;16.17;8.87;;;;;;;;;;4991199;28;20630;-52
2023/01/25 07:15:02;;;;;;;16.40;9.13;;;;;;;;;;4990931;28;20884;-52
2023/01/25 07:17:29;;;;;;;14.37;9.03;;;;;;;;;;4985494;28;20451;-54
2023/01/25 07:19:55;;;;;;;15.50;9.67;;;;;;;;;;5009901;28;20496;-52
2023/01/25 07:22:21;;;;;;;17.20;8.90;;;;;;;;;;5017871;28;20439;-53
2023/01/25 07:24:49;;;;;;;11.70;8.93;;;;;;;;;;5013630;28;20450;-54
2023/01/25 07:27:43;;;;;;;14.27;9.60;;;;;;;;;;4989625;28;21630;-53
2023/01/25 07:30:09;;;;;;;14.73;8.53;;;;;;;;;;4987778;28;20427;-53
2023/01/25 07:32:35;;;;;;;14.37;9.03;;;;;;;;;;5006235;28;20467;-52
2023/01/25 07:35:01;;;;;;;11.93;8.67;;;;;;;;;;4984241;28;21136;-53
2023/01/25 07:37:28;;;;;;;13.60;9.00;;;;;;;;;;5020293;28;21140;-53
2023/01/25 07:39:56;;;;;;;15.87;8.70;;;;;;;;;;4999210;28;20530;-51
2023/01/25 07:42:24;;;;;;;14.03;8.67;;;;;;;;;;5026954;28;20986;-54
2023/01/25 07:44:50;;;;;;;12.50;9.17;;;;;;;;;;4983470;28;20470;-52
2023/01/25 07:47:16;;;;;;;12.37;7.57;;;;;;;;;;5012373;28;20436;-53
2023/01/25 07:49:45;;;;;;;13.90;7.67;;;;;;;;;;4958638;28;20517;-54
2023/01/25 07:52:11;;;;;;;15.93;10.13;;;;;;;;;;4998027;28;20471;-52
2023/01/25 07:54:37;;;;;;;16.87;7.47;;;;;;;;;;5027862;28;20446;-52
2023/01/25 07:57:03;;;;;;;14.50;7.70;;;;;;;;;;5014499;28;20502;-52
2023/01/25 07:59:33;;;;;;;14.70;8.03;;;;;;;;;;5006800;28;20434;-55
2023/01/25 08:01:59;;;;;;;19.33;8.67;;;;;;;;;;4978325;28;20439;-52
2023/01/25 08:04:26;;;;;;;13.80;7.90;;;;;;;;;;5012787;28;21286;-53
2023/01/25 08:06:52;;;;;;;13.10;8.80;;;;;;;;;;5003035;28;20443;-55
2023/01/25 08:09:21;;;;;;;12.90;8.63;;;;;;;;;;4986572;28;20442;-55
2023/01/25 08:11:48;;;;;;;11.83;8.33;;;;;;;;;;5018612;28;20570;-53
2023/01/25 08:14:14;;;;;;;17.17;8.47;;;;;;;;;;4997182;28;20450;-53
2023/01/25 08:16:40;;;;;;;10.97;6.93;;;;;;;;;;5012598;28;20497;-52
2023/01/25 08:19:06;;;;;;;11.30;8.10;;;;;;;;;;5016158;28;20530;-52
2023/01/25 08:21:33;;;;;;;10.80;6.97;;;;;;;;;;5017890;28;20513;-52
2023/01/25 08:23:59;;;;;;;15.50;8.40;;;;;;;;;;4991948;28;20431;-55
2023/01/25 08:26:25;;;;;;;13.27;9.40;;;;;;;;;;5019656;28;20528;-54
2023/01/25 08:28:54;;;;;;;14.20;8.03;;;;;;;;;;5011861;28;20430;-51
2023/01/25 08:31:21;;;;;;;12.60;8.00;;;;;;;;;;5020195;28;20566;-53
2023/01/25 08:33:47;;;;;;;12.07;7.30;;;;;;;;;;4975182;28;21764;-55
2023/01/25 08:36:14;;;;;;;14.23;8.57;;;;;;;;;;5019167;28;20527;-54
2023/01/25 08:38:40;;;;;;;14.47;8.30;;;;;;;;;;4995596;28;20450;-53
2023/01/25 08:41:06;;;;;;;16.37;7.60;;;;;;;;;;5014387;28;20481;-53
2023/01/25 08:43:32;;;;;;;11.40;8.63;;;;;;;;;;5011755;28;20450;-54
2023/01/25 08:45:58;;;;;;;13.53;8.13;;;;;;;;;;5013860;28;20435;-56
2023/01/25 08:48:24;;;;;;;14.60;9.60;;;;;;;;;;5014192;28;20947;-52
2023/01/25 08:50:50;;;;;;;13.73;7.80;;;;;;;;;;5018165;28;20445;-54
2023/01/25 08:53:16;;;;;;;15.87;7.47;;;;;;;;;;5005218;28;20507;-54
2023/01/25 08:55:42;;;;;;;16.07;7.70;;;;;;;;;;5014147;28;20516;-53
2023/01/25 08:58:09;;;;;;;11.80;7.77;;;;;;;;;;4996504;28;20490;-56
2023/01/25 09:00:36;;;;;;;11.40;6.70;;;;;;;;;;5007244;28;20423;-53
2023/01/25 09:03:02;;;;;;;9.83;7.03;;;;;;;;;;4976766;28;20443;-53
2023/01/25 09:05:28;;;;;;;12.60;8.30;;;;;;;;;;4988711;28;20828;-52
2023/01/25 09:07:54;;;;;;;13.30;6.03;;;;;;;;;;5018016;28;20431;-53
2023/01/25 09:10:20;;;;;;;9.77;6.13;;;;;;;;;;4995025;28;20211;-53
2023/01/25 09:12:46;;;;;;;7.77;6.73;;;;;;;;;;5012452;28;21372;-53
2023/01/25 09:15:12;;;;;;;11.23;8.27;;;;;;;;;;4986786;28;20435;-53
2023/01/25 09:17:38;;;;;;;11.97;7.67;;;;;;;;;;5017906;28;20463;-53
2023/01/25 09:20:05;;;;;;;17.07;9.60;;;;;;;;;;5009956;28;20215;-53
2023/01/25 09:22:31;;;;;;;14.03;7.53;;;;;;;;;;5013102;28;20438;-52
2023/01/25 09:24:57;;;;;;;19.10;9.20;;;;;;;;;;4988634;28;20443;-51
2023/01/25 09:27:23;;;;;;;11.33;7.23;;;;;;;;;;5020312;28;20436;-52
2023/01/25 09:29:49;;;;;;;18.10;7.93;;;;;;;;;;5011632;28;20467;-53
2023/01/25 09:32:15;;;;;;;17.37;10.93;;;;;;;;;;5016789;28;20470;-53
2023/01/25 09:34:41;;;;;;;17.27;8.87;;;;;;;;;;4972089;28;20447;-53
2023/01/25 09:37:07;;;;;;;16.73;8.60;;;;;;;;;;5014126;28;21177;-54
2023/01/25 09:39:33;;;;;;;13.90;8.60;;;;;;;;;;5006927;28;20432;-52
2023/01/25 09:42:19;;;;;;;14.63;6.70;;;;;;;;;;4989884;28;20948;-52
2023/01/25 09:44:45;;;;;;;16.30;7.67;;;;;;;;;;4999133;28;20454;-51
2023/01/25 09:47:15;;;;;;;14.03;7.30;;;;;;;;;;5000310;28;20489;-54
2023/01/25 09:49:50;;;;;;;10.00;6.60;;;;;;;;;;5009725;28;20447;-52
2023/01/25 09:52:35;;;;;;;11.80;8.07;;;;;;;;;;5011695;28;20573;-55
2023/01/25 09:55:01;;;;;;;11.50;7.70;;;;;;;;;;4996368;28;21697;-52
2023/01/25 09:57:31;;;;;;;12.43;7.33;;;;;;;;;;5010206;28;20515;-51
2023/01/25 09:59:57;;;;;;;16.23;9.30;;;;;;;;;;5013768;28;20427;-51
2023/01/25 10:02:31;;;;;;;14.37;8.73;;;;;;;;;;5013099;28;20540;-52
2023/01/25 10:05:19;;;;;;;14.57;9.10;;;;;;;;;;4988430;28;23876;-55
2023/01/25 10:07:49;;;;;;;11.57;7.43;;;;;;;;;;5016184;28;20431;-54
2023/01/25 10:10:23;;;;;;;13.70;8.20;;;;;;;;;;5011931;28;20443;-54
2023/01/25 10:12:49;;;;;;;13.80;6.80;;;;;;;;;;5012188;28;21451;-56
2023/01/25 10:15:19;;;;;;;12.67;7.80;;;;;;;;;;4989160;28;20468;-53
2023/01/25 10:17:45;;;;;;;12.90;9.10;;;;;;;;;;5015186;28;20445;-55
2023/01/25 10:20:26;;;;;;;12.70;8.30;;;;;;;;;;5012039;28;20419;-54
2023/01/25 10:23:11;;;;;;;12.07;8.43;;;;;;;;;;5011248;28;20439;-52
2023/01/25 10:25:46;;;;;;;10.97;8.30;;;;;;;;;;4988906;28;20431;-52
2023/01/25 10:28:31;;;;;;;12.27;8.03;;;;;;;;;;5018031;28;20456;-56
2023/01/25 10:31:08;;;;;;;14.70;9.30;;;;;;;;;;5013092;28;20467;-52
2023/01/25 10:33:35;;;;;;;9.80;7.17;;;;;;;;;;5011562;28;20486;-52
2023/01/25 10:36:01;;;;;;;16.70;9.17;;;;;;;;;;4969173;28;20427;-53
2023/01/25 10:38:32;;;;;;;17.87;9.43;;;;;;;;;;5013986;28;20902;-53
2023/01/25 10:40:58;;;;;;;14.93;9.70;;;;;;;;;;5009031;28;20543;-53
2023/01/25 10:43:24;;;;;;;15.50;8.90;;;;;;;;;;5015363;28;20549;-50
2023/01/25 10:45:50;;;;;;;11.47;8.60;;;;;;;;;;4992920;28;20263;-52
2023/01/25 10:48:31;;;;;;;11.83;9.17;;;;;;;;;;5009782;28;20471;-52
2023/01/25 10:50:57;;;;;;;18.17;9.30;;;;;;;;;;5007659;28;21247;-52
2023/01/25 10:53:24;;;;;;;15.60;9.10;;;;;;;;;;5021193;28;20435;-53
2023/01/25 10:56:15;;;;;;;13.97;9.70;;;;;;;;;;5000840;28;20446;-53
2023/01/25 10:58:45;;;;;;;16.70;8.77;;;;;;;;;;5011226;28;20439;-54
2023/01/25 11:01:24;;;;;;;18.70;10.80;;;;;;;;;;5013291;28;20446;-52
2023/01/25 11:03:50;;;;;;;14.80;8.47;;;;;;;;;;5021190;28;21756;-52
2023/01/25 11:06:16;;;;;;;19.40;10.13;;;;;;;;;;4974826;28;20784;-53
2023/01/25 11:08:42;;;;;;;11.63;7.60;;;;;;;;;;5023927;28;20447;-53
2023/01/25 11:11:24;;;;;;;11.17;7.97;;;;;;;;;;5017658;28;20535;-53
2023/01/25 11:13:50;;;;;;;12.60;8.90;;;;;;;;;;5011370;28;20438;-52
2023/01/25 11:16:19;;;;;;;16.03;9.83;;;;;;;;;;4994143;28;21081;-53
2023/01/25 11:18:54;;;;;;;12.33;8.27;;;;;;;;;;5023619;28;20465;-53
2023/01/25 11:21:22;;;;;;;16.07;9.07;;;;;;;;;;5017575;28;20442;-53
2023/01/25 11:23:57;;;;;;;12.87;9.10;;;;;;;;;;5019711;28;20440;-52
2023/01/25 11:26:23;;;;;;;14.77;8.10;;;;;;;;;;4995808;28;20431;-52
2023/01/25 11:28:49;;;;;;;14.90;8.37;;;;;;;;;;5017876;28;20489;-53
2023/01/25 11:31:16;;;;;;;18.70;10.60;;;;;;;;;;5007060;28;20212;-52
2023/01/25 11:33:42;;;;;;;19.23;9.47;;;;;;;;;;5020891;28;20428;-53
2023/01/25 11:36:08;;;;;;;15.27;11.30;;;;;;;;;;4981862;28;20438;-55
2023/01/25 11:38:34;;;;;;;15.70;8.47;;;;;;;;;;5016417;28;20435;-52
2023/01/25 11:41:12;;;;;;;16.47;9.20;;;;;;;;;;5002578;28;20435;-55
2023/01/25 11:43:47;;;;;;;13.90;8.37;;;;;;;;;;5010917;28;20458;-53
2023/01/25 11:46:13;;;;;;;15.87;10.73;;;;;;;;;;5017407;28;20903;-53
2023/01/25 11:48:48;;;;;;;15.80;8.73;;;;;;;;;;4992473;28;20440;-52
2023/01/25 11:51:35;;;;;;;12.80;8.83;;;;;;;;;;5020508;28;20522;-52
2023/01/25 11:54:16;;;;;;;14.40;9.17;;;;;;;;;;5015343;28;20519;-54
2023/01/25 11:56:45;;;;;;;15.80;9.67;;;;;;;;;;5002389;28;20442;-52
2023/01/25 11:59:23;;;;;;;15.93;9.53;;;;;;;;;;5014049;28;21377;-53
2023/01/25 12:02:07;;;;;;;17.77;10.97;;;;;;;;;;5018193;28;20792;-53
2023/01/25 12:04:38;;;;;;;15.90;9.87;;;;;;;;;;5022827;28;20471;-52
2023/01/25 12:07:28;;;;;;;20.10;10.73;;;;;;;;;;4977079;28;20439;-54
2023/01/25 12:09:57;;;;;;;17.00;9.83;;;;;;;;;;4997386;28;20456;-53
2023/01/25 12:12:23;;;;;;;26.00;11.43;;;;;;;;;;5016851;28;20523;-54
2023/01/25 12:14:52;;;;;;;15.60;9.50;;;;;;;;;;5018222;28;20455;-55
2023/01/25 12:17:21;;;;;;;14.80;9.30;;;;;;;;;;4988982;28;20427;-54
2023/01/25 12:19:51;;;;;;;20.37;11.30;;;;;;;;;;5022540;28;20462;-52
2023/01/25 12:22:16;;;;;;;15.87;9.40;;;;;;;;;;4995393;28;20794;-53
2023/01/25 12:25:01;;;;;;;18.30;9.37;;;;;;;;;;5021916;28;20419;-53
2023/01/25 12:27:33;;;;;;;16.37;10.77;;;;;;;;;;4990192;28;21038;-52
2023/01/25 12:30:22;;;;;;;18.73;10.40;;;;;;;;;;5015379;28;20435;-54
2023/01/25 12:32:50;;;;;;;12.90;9.40;;;;;;;;;;4965748;28;21071;-52
2023/01/25 12:35:40;;;;;;;20.33;10.50;;;;;;;;;;4981265;28;20478;-53
2023/01/25 12:38:10;;;;;;;17.73;11.20;;;;;;;;;;4954162;28;20557;-54
2023/01/25 12:40:40;;;;;;;22.10;10.97;;;;;;;;;;4982724;28;21616;-53
2023/01/25 12:43:07;;;;;;;15.23;9.93;;;;;;;;;;4937059;28;21081;-51
2023/01/25 12:45:34;;;;;;;19.37;12.03;;;;;;;;;;4977269;28;20455;-52
2023/01/25 12:48:05;;;;;;;16.40;10.63;;;;;;;;;;4963256;28;20552;-53
2023/01/25 12:50:35;;;;;;;14.13;9.37;;;;;;;;;;5017573;28;20582;-54
2023/01/25 12:53:02;;;;;;;15.97;9.77;;;;;;;;;;4995018;28;21006;-53
2023/01/25 12:55:28;;;;;;;19.17;10.27;;;;;;;;;;5016673;28;20431;-53
2023/01/25 12:58:00;;;;;;;16.67;10.00;;;;;;;;;;4993205;28;21198;-53
2023/01/25 13:00:47;;;;;;;14.03;9.07;;;;;;;;;;5007247;28;20712;-52
2023/01/25 13:03:21;;;;;;;19.80;10.63;;;;;;;;;;4981385;28;21027;-53
2023/01/25 13:05:58;;;;;;;15.87;11.03;;;;;;;;;;4991920;28;20498;-53
2023/01/25 13:08:43;;;;;;;17.50;10.90;;;;;;;;;;4999971;28;20547;-53
2023/01/25 13:11:12;;;;;;;19.90;12.80;;;;;;;;;;5014625;28;20442;-55
2023/01/25 13:13:52;;;;;;;23.50;13.27;;;;;;;;;;4975996;28;20447;-52
2023/01/25 13:16:31;;;;;;;20.03;12.70;;;;;;;;;;4996703;28;21262;-52
2023/01/25 13:18:57;;;;;;;16.10;9.10;;;;;;;;;;5002907;28;20435;-53
2023/01/25 13:21:45;;;;;;;19.23;11.43;;;;;;;;;;4975028;28;20442;-52
2023/01/25 13:24:12;;;;;;;21.90;12.03;;;;;;;;;;4980012;28;20447;-57
2023/01/25 13:26:51;;;;;;;18.63;12.37;;;;;;;;;;5012087;28;20431;-55
2023/01/25 13:29:45;;;;;;;19.77;12.13;;;;;;;;;;4990522;28;20474;-54
2023/01/25 13:32:12;;;;;;;17.63;12.13;;;;;;;;;;5014836;28;20482;-53
2023/01/25 13:34:42;;;;;;;19.27;12.27;;;;;;;;;;4982353;28;20442;-54
2023/01/25 13:37:28;;;;;;;21.30;12.47;;;;;;;;;;5015251;28;20439;-53
2023/01/25 13:40:12;;;;;;;18.00;11.37;;;;;;;;;;4992260;28;20542;-53
2023/01/25 13:42:38;;;;;;;18.10;11.00;;;;;;;;;;5015097;28;20444;-53
2023/01/25 13:45:07;;;;;;;18.77;10.63;;;;;;;;;;4976051;28;20524;-52
2023/01/25 13:47:37;;;;;;;16.63;10.67;;;;;;;;;;5014036;28;21216;-52
2023/01/25 13:50:08;;;;;;;19.27;11.20;;;;;;;;;;4986093;28;20473;-53
2023/01/25 13:52:34;;;;;;;24.70;12.90;;;;;;;;;;5031654;28;20547;-54
2023/01/25 13:55:00;;;;;;;22.20;11.97;;;;;;;;;;4978342;28;20500;-54
2023/01/25 13:57:27;;;;;;;19.07;11.43;;;;;;;;;;5010371;28;20431;-53
2023/01/25 14:00:02;;;;;;;24.53;10.80;;;;;;;;;;4983379;28;20899;-53
2023/01/25 14:02:29;;;;;;;20.70;11.87;;;;;;;;;;5017049;28;20430;-54
2023/01/25 14:04:55;;;;;;;17.50;10.60;;;;;;;;;;4985145;28;20690;-54
2023/01/25 14:07:28;;;;;;;24.07;13.47;;;;;;;;;;5015801;28;20892;-54
2023/01/25 14:09:54;;;;;;;19.37;10.70;;;;;;;;;;4985957;28;20493;-52
2023/01/25 14:12:26;;;;;;;19.70;11.00;;;;;;;;;;5011498;28;20509;-52
2023/01/25 14:14:52;;;;;;;17.53;10.67;;;;;;;;;;4971734;28;21620;-53
2023/01/25 14:17:19;;;;;;;22.07;10.63;;;;;;;;;;5011686;28;20439;-54
2023/01/25 14:20:08;;;;;;;22.53;12.30;;;;;;;;;;5018960;28;20924;-53
2023/01/25 14:22:34;;;;;;;21.53;12.57;;;;;;;;;;5014466;28;20423;-53
2023/01/25 14:25:06;;;;;;;23.83;13.33;;;;;;;;;;5013607;28;20442;-52
2023/01/25 14:27:32;;;;;;;18.80;11.80;;;;;;;;;;5002264;28;20464;-53
2023/01/25 14:29:59;;;;;;;18.13;12.10;;;;;;;;;;5014803;28;20436;-54
2023/01/25 14:32:24;;;;;;;18.93;11.60;;;;;;;;;;5001506;28;20561;-53